Time;durP1;ratioP1;P1;durP2;ratioP2;P2;SDS_P1;SDS_P2;PMS_P1;PMS_P2;Temp;Humidity;BMP_temperature;BMP_pressure;BME280_temperature;BME280_humidity;BME280_pressure;Samples;Min_cycle;Max_cycle;Signal;HPM_P1;HPM_P2
2021/12/02 00:01:27;;;;;;;4.45;2.20;;;6.10;99.90;;;;;;5059086;28;20032;-63
2021/12/02 00:03:55;;;;;;;5.53;2.17;;;6.10;99.90;;;;;;5059232;28;20039;-62
2021/12/02 00:06:20;;;;;;;4.63;2.25;;;6.10;99.90;;;;;;5060141;28;20404;-63
2021/12/02 00:08:48;;;;;;;3.67;1.80;;;6.00;99.90;;;;;;5065038;28;20048;-62
2021/12/02 00:11:15;;;;;;;5.40;2.40;;;5.90;99.90;;;;;;5067645;28;20036;-62
2021/12/02 00:16:28;;;;;;;4.95;2.08;;;5.80;99.90;;;;;;5063701;28;20123;-63
2021/12/02 00:21:25;;;;;;;6.57;2.40;;;5.90;99.90;;;;;;5062511;28;20028;-62
2021/12/02 00:24:01;;;;;;;5.55;2.30;;;5.90;99.90;;;;;;5068064;28;20033;-63
2021/12/02 00:26:28;;;;;;;8.52;2.63;;;5.90;99.90;;;;;;5060137;28;20044;-62
2021/12/02 00:28:56;;;;;;;5.40;2.10;;;5.90;99.90;;;;;;5063766;28;20047;-62
2021/12/02 00:31:25;;;;;;;7.47;2.88;;;5.90;99.90;;;;;;5067754;28;20037;-61
2021/12/02 00:33:54;;;;;;;7.32;2.40;;;5.90;99.90;;;;;;5045300;28;20472;-62
2021/12/02 00:36:23;;;;;;;4.63;2.33;;;5.90;99.90;;;;;;5060972;28;20033;-63
2021/12/02 00:38:51;;;;;;;6.15;2.33;;;5.90;99.90;;;;;;5058147;28;20057;-62
2021/12/02 00:41:22;;;;;;;9.65;2.63;;;6.00;99.90;;;;;;5060791;28;20100;-62
2021/12/02 00:43:49;;;;;;;8.70;3.15;;;6.00;99.90;;;;;;5056045;28;20405;-63
2021/12/02 00:46:18;;;;;;;4.85;2.20;;;5.90;99.90;;;;;;5068344;28;20032;-63
2021/12/02 00:48:44;;;;;;;6.72;2.40;;;6.00;99.90;;;;;;5063357;28;20028;-62
2021/12/02 00:51:11;;;;;;;6.43;2.40;;;6.00;99.90;;;;;;5058259;28;20048;-63
2021/12/02 00:53:42;;;;;;;7.60;2.53;;;5.90;99.90;;;;;;5062828;28;20107;-63
2021/12/02 00:56:10;;;;;;;6.82;2.95;;;5.90;99.90;;;;;;5060638;28;20090;-62
2021/12/02 00:58:37;;;;;;;8.80;2.95;;;5.80;99.90;;;;;;5061267;28;20033;-63
2021/12/02 01:01:06;;;;;;;5.82;2.35;;;5.70;99.90;;;;;;5061482;28;20036;-62
2021/12/02 01:03:36;;;;;;;8.32;2.13;;;5.70;99.90;;;;;;5063126;28;20020;-61
2021/12/02 01:06:05;;;;;;;6.07;2.58;;;5.60;99.90;;;;;;5062700;28;20036;-62
2021/12/02 01:08:33;;;;;;;7.38;2.42;;;5.60;99.90;;;;;;5055338;28;20040;-62
2021/12/02 01:10:59;;;;;;;8.13;2.60;;;5.60;99.90;;;;;;5052974;28;20037;-62
2021/12/02 01:13:25;;;;;;;4.82;2.10;;;5.50;99.90;;;;;;5053315;28;20369;-63
2021/12/02 01:15:52;;;;;;;6.20;2.33;;;5.40;99.90;;;;;;5053300;28;20036;-62
2021/12/02 01:18:17;;;;;;;4.72;2.30;;;5.40;99.90;;;;;;5052738;28;20065;-62
2021/12/02 01:20:50;;;;;;;9.80;3.00;;;5.40;99.90;;;;;;5052596;28;20037;-62
2021/12/02 01:23:17;;;;;;;7.68;2.67;;;5.40;99.90;;;;;;5091636;28;20165;-62
2021/12/02 01:25:49;;;;;;;5.38;2.22;;;5.30;99.90;;;;;;5092118;28;20177;-62
2021/12/02 01:28:17;;;;;;;5.47;2.53;;;5.40;99.90;;;;;;5093057;28;20073;-62
2021/12/02 01:30:45;;;;;;;6.32;2.40;;;5.40;99.90;;;;;;5092875;28;20039;-62
2021/12/02 01:33:14;;;;;;;9.50;2.58;;;5.40;99.90;;;;;;5092730;28;20035;-62
2021/12/02 01:35:40;;;;;;;7.35;2.65;;;5.40;99.90;;;;;;5078767;28;20120;-62
2021/12/02 01:38:06;;;;;;;11.30;2.30;;;5.30;99.90;;;;;;5072489;28;20032;-63
2021/12/02 01:40:31;;;;;;;4.25;2.60;;;5.20;99.90;;;;;;5072100;28;20036;-62
2021/12/02 01:42:58;;;;;;;11.63;3.30;;;5.30;99.90;;;;;;5071429;28;20119;-61
2021/12/02 01:45:27;;;;;;;4.45;2.67;;;5.30;99.90;;;;;;5072772;28;20052;-62
2021/12/02 01:47:55;;;;;;;7.25;2.58;;;5.30;99.90;;;;;;5073158;28;20041;-61
2021/12/02 01:50:23;;;;;;;5.30;2.40;;;5.30;99.90;;;;;;5072541;28;20041;-62
2021/12/02 01:52:57;;;;;;;6.65;2.92;;;5.40;99.90;;;;;;5072640;28;20040;-62
2021/12/02 01:55:23;;;;;;;7.03;3.03;;;5.30;99.90;;;;;;5059685;28;20522;-62
2021/12/02 01:57:58;;;;;;;14.63;4.25;;;5.30;99.90;;;;;;5052282;28;20411;-61
2021/12/02 02:00:33;;;;;;;6.35;2.80;;;5.30;99.90;;;;;;5052392;28;20027;-63
2021/12/02 02:03:00;;;;;;;;;;;5.30;99.90;;;;;;5052845;28;20107;-63
2021/12/02 02:05:27;;;;;;;3.88;2.13;;;5.30;99.90;;;;;;5052987;28;19931;-63
2021/12/02 02:08:15;;;;;;;11.43;2.88;;;5.30;99.90;;;;;;5052743;28;20099;-62
2021/12/02 02:10:41;;;;;;;7.07;2.88;;;5.40;99.90;;;;;;5052131;28;20032;-63
2021/12/02 02:13:09;;;;;;;7.93;2.55;;;5.40;99.90;;;;;;5052618;28;20044;-62
2021/12/02 02:15:36;;;;;;;10.68;3.00;;;5.40;99.90;;;;;;5051063;28;20378;-61
2021/12/02 02:18:17;;;;;;;5.53;2.40;;;5.40;99.90;;;;;;5050859;28;20037;-62
2021/12/02 02:21:03;;;;;;;8.05;2.63;;;5.30;99.90;;;;;;5052263;28;20444;-63
2021/12/02 02:23:35;;;;;;;7.03;2.45;;;5.40;99.90;;;;;;5052230;28;20027;-63
2021/12/02 02:26:01;;;;;;;8.52;2.70;;;5.40;99.90;;;;;;5051027;28;20025;-63
2021/12/02 02:28:28;;;;;;;7.47;2.95;;;5.40;99.90;;;;;;5052551;28;20145;-63
2021/12/02 02:30:54;;;;;;;8.40;3.03;;;5.40;99.90;;;;;;5051721;28;20040;-62
2021/12/02 02:33:21;;;;;;;9.48;3.58;;;5.40;99.90;;;;;;5052134;28;20045;-63
2021/12/02 02:35:47;;;;;;;9.18;3.05;;;5.50;99.90;;;;;;5067667;28;20107;-63
2021/12/02 02:38:14;;;;;;;6.25;2.70;;;5.50;99.90;;;;;;5072088;28;20036;-63
2021/12/02 02:40:43;;;;;;;7.88;2.60;;;5.60;99.90;;;;;;5071784;28;20068;-62
2021/12/02 02:43:10;;;;;;;6.93;2.47;;;5.60;99.90;;;;;;5071932;28;20036;-62
2021/12/02 02:45:37;;;;;;;7.57;2.50;;;5.60;99.90;;;;;;5072202;28;20059;-62
2021/12/02 02:48:04;;;;;;;9.18;3.00;;;5.70;99.90;;;;;;5072193;28;20032;-62
2021/12/02 02:50:31;;;;;;;6.72;2.75;;;5.60;99.90;;;;;;5073404;28;20040;-62
2021/12/02 02:53:20;;;;;;;9.43;2.80;;;5.50;99.90;;;;;;5076163;28;20043;-62
2021/12/02 02:55:58;;;;;;;7.40;3.03;;;5.50;99.90;;;;;;5059827;28;20120;-62
2021/12/02 03:03:49;;;;;;;10.50;3.30;;;5.30;99.90;;;;;;5055870;28;20166;-62
2021/12/02 03:08:53;;;;;;;9.20;3.10;;;5.20;99.90;;;;;;5054500;28;20033;-62
2021/12/02 03:11:21;;;;;;;7.80;3.03;;;5.30;99.90;;;;;;5054437;28;20040;-63
2021/12/02 03:13:51;;;;;;;4.07;2.33;;;5.20;99.90;;;;;;5055182;28;20400;-62
2021/12/02 03:16:43;;;;;;;4.55;2.20;;;5.20;99.90;;;;;;5055688;28;20515;-63
2021/12/02 03:19:10;;;;;;;5.50;2.25;;;5.20;99.90;;;;;;5054868;28;20025;-62
2021/12/02 03:21:36;;;;;;;5.32;2.30;;;5.20;99.90;;;;;;5066471;28;20078;-62
2021/12/02 03:24:01;;;;;;;7.45;3.08;;;5.20;99.90;;;;;;5095798;28;20074;-62
2021/12/02 03:26:29;;;;;;;7.63;2.50;;;5.20;99.90;;;;;;5095694;28;20107;-62
2021/12/02 03:28:55;;;;;;;5.93;2.30;;;5.20;99.90;;;;;;5095946;28;20058;-63
2021/12/02 03:31:22;;;;;;;3.63;1.90;;;5.20;99.90;;;;;;5084497;28;20134;-62
2021/12/02 03:33:48;;;;;;;6.72;2.00;;;5.10;99.90;;;;;;5055416;28;20041;-64
2021/12/02 03:36:16;;;;;;;7.55;2.13;;;5.00;99.90;;;;;;5074129;28;20033;-62
2021/12/02 03:38:41;;;;;;;6.60;2.20;;;4.90;99.90;;;;;;5075067;28;20086;-62
2021/12/02 03:41:07;;;;;;;5.38;2.53;;;4.90;99.90;;;;;;5074673;28;20028;-62
2021/12/02 03:43:38;;;;;;;4.15;2.20;;;4.80;99.90;;;;;;5074873;28;20392;-63
2021/12/02 03:46:04;;;;;;;5.63;2.60;;;4.80;99.90;;;;;;5074436;28;20074;-62
2021/12/02 03:48:30;;;;;;;4.90;2.13;;;4.70;99.90;;;;;;5074129;28;20028;-62
2021/12/02 03:50:56;;;;;;;6.07;1.95;;;4.80;99.90;;;;;;5073759;28;20476;-64
2021/12/02 03:53:22;;;;;;;5.38;2.10;;;4.90;99.90;;;;;;5074167;28;20024;-62
2021/12/02 03:55:47;;;;;;;7.45;2.33;;;4.80;99.90;;;;;;5057575;28;20073;-63
2021/12/02 03:58:13;;;;;;;9.95;2.53;;;4.80;99.90;;;;;;5054296;28;20037;-62
2021/12/02 04:00:42;;;;;;;6.68;2.15;;;4.70;99.90;;;;;;5053836;28;20044;-63
2021/12/02 04:03:08;;;;;;;5.20;2.10;;;4.60;99.90;;;;;;5059730;28;20044;-64
2021/12/02 04:05:33;;;;;;;3.20;1.90;;;4.60;99.90;;;;;;5067120;28;20074;-63
2021/12/02 04:07:59;;;;;;;4.80;2.00;;;4.50;99.90;;;;;;5056992;28;20037;-63
2021/12/02 04:10:25;;;;;;;5.18;2.60;;;4.50;99.90;;;;;;5056102;28;20382;-63
2021/12/02 04:13:15;;;;;;;7.68;2.40;;;4.60;99.90;;;;;;5056272;28;20052;-63
2021/12/02 04:15:40;;;;;;;8.30;2.30;;;4.50;99.90;;;;;;5055799;28;20067;-63
2021/12/02 04:18:07;;;;;;;6.60;2.95;;;4.50;99.90;;;;;;5054310;28;20551;-62
2021/12/02 04:20:33;;;;;;;6.97;3.10;;;4.60;99.90;;;;;;5052725;28;20136;-63
2021/12/02 04:22:58;;;;;;;7.60;2.65;;;4.60;99.90;;;;;;5089143;28;20111;-62
2021/12/02 04:25:26;;;;;;;5.80;2.90;;;4.60;99.90;;;;;;5094684;28;20059;-63
2021/12/02 04:27:53;;;;;;;5.85;2.53;;;4.50;99.90;;;;;;5094824;28;20044;-63
2021/12/02 04:30:24;;;;;;;7.72;3.03;;;4.60;99.90;;;;;;5094906;28;20055;-63
2021/12/02 04:32:51;;;;;;;9.25;3.03;;;4.60;99.90;;;;;;5094502;28;20024;-63
2021/12/02 04:35:16;;;;;;;6.40;2.60;;;4.60;99.90;;;;;;5083388;28;20131;-63
2021/12/02 04:37:44;;;;;;;6.25;3.05;;;4.40;99.90;;;;;;5074411;28;20565;-63
2021/12/02 04:40:11;;;;;;;10.48;2.58;;;4.40;99.90;;;;;;5073704;28;20033;-63
2021/12/02 04:42:37;;;;;;;9.30;3.28;;;4.40;99.90;;;;;;5073715;28;20035;-63
2021/12/02 04:45:04;;;;;;;9.60;3.13;;;4.60;99.90;;;;;;5073608;28;20028;-63
2021/12/02 04:47:30;;;;;;;8.50;3.90;;;4.40;99.90;;;;;;5073869;28;20033;-64
2021/12/02 04:49:55;;;;;;;6.32;2.65;;;4.40;99.90;;;;;;5073313;28;20404;-63
2021/12/02 04:52:21;;;;;;;6.72;2.50;;;4.40;99.90;;;;;;5073636;28;20028;-63
2021/12/02 04:54:47;;;;;;;4.68;2.50;;;4.40;99.90;;;;;;5065159;28;20024;-62
2021/12/02 04:57:12;;;;;;;9.07;3.05;;;4.50;99.90;;;;;;5053521;28;20041;-63
2021/12/02 04:59:38;;;;;;;9.30;2.60;;;4.50;99.90;;;;;;5053002;28;20029;-63
2021/12/02 05:02:03;;;;;;;6.80;2.90;;;4.40;99.90;;;;;;5052073;28;20477;-64
2021/12/02 05:04:29;;;;;;;6.50;2.58;;;4.40;99.90;;;;;;5052909;28;20029;-62
2021/12/02 05:06:55;;;;;;;9.90;2.67;;;4.30;99.90;;;;;;5053387;28;20032;-63
2021/12/02 05:09:20;;;;;;;5.28;2.40;;;4.30;99.90;;;;;;5053048;28;20048;-63
2021/12/02 05:11:46;;;;;;;11.38;2.40;;;4.20;99.90;;;;;;5053293;28;20123;-63
2021/12/02 05:14:12;;;;;;;4.70;2.88;;;4.30;99.90;;;;;;5053400;28;20037;-63
2021/12/02 05:16:39;;;;;;;8.35;2.55;;;4.30;99.90;;;;;;5054122;28;20036;-64
2021/12/02 05:19:08;;;;;;;8.55;3.05;;;4.30;99.90;;;;;;5052876;28;20131;-64
2021/12/02 05:21:33;;;;;;;5.60;2.92;;;4.20;99.90;;;;;;5065197;28;20108;-63
2021/12/02 05:23:59;;;;;;;5.18;2.28;;;4.10;99.90;;;;;;5093519;28;20039;-62
2021/12/02 05:26:26;;;;;;;5.50;2.30;;;4.10;99.90;;;;;;5093419;28;20032;-63
2021/12/02 05:28:53;;;;;;;6.72;2.20;;;4.10;99.90;;;;;;5093371;28;20036;-65
2021/12/02 05:31:19;;;;;;;6.05;2.50;;;4.00;99.90;;;;;;5093779;28;20555;-62
2021/12/02 05:33:45;;;;;;;5.97;2.67;;;4.00;99.90;;;;;;5093202;28;20027;-63
2021/12/02 05:36:10;;;;;;;5.22;2.83;;;4.10;99.90;;;;;;5073433;28;20450;-63
2021/12/02 05:38:36;;;;;;;7.82;3.00;;;4.10;99.90;;;;;;5073205;28;20511;-64
2021/12/02 05:41:03;;;;;;;7.32;3.10;;;4.00;99.90;;;;;;5072083;28;20578;-63
2021/12/02 05:43:28;;;;;;;6.13;2.70;;;3.90;99.90;;;;;;5072455;28;20029;-63
2021/12/02 05:45:54;;;;;;;6.32;2.75;;;3.90;99.90;;;;;;5072668;28;20502;-63
2021/12/02 05:48:20;;;;;;;12.25;3.67;;;3.80;99.90;;;;;;5071889;28;20060;-62
2021/12/02 05:50:46;;;;;;;5.97;2.70;;;3.80;99.90;;;;;;5072547;28;20109;-63
2021/12/02 05:53:11;;;;;;;8.98;3.00;;;3.80;99.90;;;;;;5060086;28;20440;-62
2021/12/02 05:55:37;;;;;;;5.72;2.53;;;3.80;99.90;;;;;;5067726;28;20043;-64
2021/12/02 05:58:03;;;;;;;7.95;2.92;;;3.90;99.90;;;;;;5072862;28;20036;-66
2021/12/02 06:00:28;;;;;;;7.40;3.47;;;3.90;99.90;;;;;;5069610;28;20048;-62
2021/12/02 06:02:54;;;;;;;15.48;3.42;;;3.90;99.90;;;;;;5053712;28;20128;-64
2021/12/02 06:05:20;;;;;;;7.15;3.15;;;3.90;99.90;;;;;;5053006;28;20033;-63
2021/12/02 06:07:49;;;;;;;8.38;3.00;;;3.90;99.90;;;;;;5066949;28;20039;-63
2021/12/02 06:10:16;;;;;;;6.10;2.55;;;3.90;99.90;;;;;;5052384;28;20131;-63
2021/12/02 06:12:42;;;;;;;9.18;3.10;;;3.90;99.90;;;;;;5051936;28;20033;-63
2021/12/02 06:15:08;;;;;;;6.78;2.90;;;3.90;99.90;;;;;;5052104;28;20512;-62
2021/12/02 06:17:35;;;;;;;7.78;2.80;;;4.10;99.90;;;;;;5052539;28;20126;-63
2021/12/02 06:20:01;;;;;;;6.68;3.10;;;4.00;99.90;;;;;;5071885;28;20028;-62
2021/12/02 06:22:27;;;;;;;11.00;3.13;;;4.00;99.90;;;;;;5084985;28;20365;-64
2021/12/02 06:25:16;;;;;;;9.88;3.05;;;4.00;99.90;;;;;;5091569;28;20043;-62
2021/12/02 06:27:53;;;;;;;7.97;2.72;;;4.00;99.90;;;;;;5092798;28;20050;-64
2021/12/02 06:30:22;;;;;;;8.60;3.42;;;4.20;99.90;;;;;;5069651;28;20037;-65
2021/12/02 06:32:48;;;;;;;10.73;3.33;;;4.10;99.90;;;;;;5070611;28;20039;-64
2021/12/02 06:35:14;;;;;;;8.82;3.50;;;4.10;99.90;;;;;;5061874;28;20037;-63
2021/12/02 06:37:41;;;;;;;9.93;3.35;;;4.10;99.90;;;;;;5052359;28;20132;-66
2021/12/02 06:40:08;;;;;;;8.55;3.20;;;4.10;99.90;;;;;;5051717;28;20025;-64
2021/12/02 06:42:33;;;;;;;10.65;3.10;;;4.10;99.90;;;;;;5052201;28;20488;-65
2021/12/02 06:44:59;;;;;;;7.80;2.75;;;4.20;99.90;;;;;;5051545;28;20025;-64
2021/12/02 06:47:38;;;;;;;4.45;2.35;;;4.10;99.90;;;;;;5052290;28;20037;-65
2021/12/02 06:50:05;;;;;;;8.98;3.47;;;4.10;99.90;;;;;;5051852;28;20388;-64
2021/12/02 06:52:31;;;;;;;10.23;3.38;;;4.00;99.90;;;;;;5050832;28;20056;-63
2021/12/02 06:54:57;;;;;;;9.77;3.45;;;3.90;99.90;;;;;;5052018;28;20445;-62
2021/12/02 06:57:24;;;;;;;10.88;4.13;;;3.80;99.90;;;;;;5052649;28;20056;-63
2021/12/02 06:59:49;;;;;;;9.07;2.92;;;3.80;99.90;;;;;;5050757;28;20120;-65
2021/12/02 07:02:15;;;;;;;8.13;3.33;;;3.70;99.90;;;;;;5052960;28;20129;-62
2021/12/02 07:04:41;;;;;;;9.63;2.70;;;3.80;99.90;;;;;;5051856;28;20033;-64
2021/12/02 07:07:06;;;;;;;9.45;3.35;;;3.90;99.90;;;;;;5051929;28;20037;-64
2021/12/02 07:09:32;;;;;;;8.50;3.10;;;3.90;99.90;;;;;;5051419;28;20041;-62
2021/12/02 07:11:58;;;;;;;8.07;2.90;;;3.90;99.90;;;;;;5071917;28;20039;-62
2021/12/02 07:14:25;;;;;;;7.68;3.05;;;3.90;99.90;;;;;;5071879;28;20040;-63
2021/12/02 07:16:51;;;;;;;9.98;3.05;;;3.80;99.90;;;;;;5069395;28;20052;-63
2021/12/02 07:19:19;;;;;;;12.38;4.43;;;3.80;99.90;;;;;;5059502;28;21264;-63
2021/12/02 07:21:45;;;;;;;10.93;3.00;;;3.80;99.90;;;;;;5059688;28;20357;-62
2021/12/02 07:24:13;;;;;;;7.88;3.53;;;3.80;99.90;;;;;;5061973;28;20040;-63
2021/12/02 07:26:41;;;;;;;13.43;3.45;;;3.90;99.90;;;;;;5060221;28;20044;-64
2021/12/02 07:29:11;;;;;;;10.13;3.25;;;3.90;99.90;;;;;;5060638;28;20040;-63
2021/12/02 07:31:39;;;;;;;6.28;3.03;;;3.90;99.90;;;;;;5061332;28;20427;-63
2021/12/02 07:34:06;;;;;;;11.68;3.78;;;3.90;99.90;;;;;;5061550;28;20035;-62
2021/12/02 07:36:32;;;;;;;11.18;4.13;;;3.90;99.90;;;;;;5062556;28;20036;-63
2021/12/02 07:39:05;;;;;;;21.92;5.15;;;3.80;99.90;;;;;;5062498;28;20063;-63
2021/12/02 07:41:35;;;;;;;10.05;3.10;;;3.90;99.90;;;;;;5063825;28;20047;-63
2021/12/02 07:44:01;;;;;;;9.93;3.25;;;3.90;99.90;;;;;;5075168;28;20063;-63
2021/12/02 07:46:26;;;;;;;4.75;2.80;;;3.80;99.90;;;;;;5075438;28;20131;-64
2021/12/02 07:48:54;;;;;;;8.68;3.67;;;3.70;99.90;;;;;;5063786;28;20067;-64
2021/12/02 07:51:22;;;;;;;10.05;3.53;;;3.80;99.90;;;;;;5054658;28;20036;-64
2021/12/02 07:53:48;;;;;;;11.10;3.35;;;3.90;99.90;;;;;;5054317;28;20035;-63
2021/12/02 07:56:17;;;;;;;9.52;2.92;;;3.80;99.90;;;;;;5054736;28;20061;-64
2021/12/02 07:58:45;;;;;;;9.07;3.20;;;3.80;99.90;;;;;;5055008;28;20120;-63
2021/12/02 08:01:12;;;;;;;8.85;3.67;;;3.80;99.90;;;;;;5062275;28;20484;-62
2021/12/02 08:03:43;;;;;;;11.15;3.20;;;3.90;99.90;;;;;;5074477;28;20033;-64
2021/12/02 08:06:11;;;;;;;12.82;2.65;;;4.00;99.90;;;;;;5064430;28;20029;-63
2021/12/02 08:08:37;;;;;;;14.70;3.63;;;3.90;99.90;;;;;;5054988;28;20025;-62
2021/12/02 08:11:04;;;;;;;8.93;3.05;;;3.80;99.90;;;;;;5053998;28;20119;-62
2021/12/02 08:13:30;;;;;;;9.77;4.45;;;4.00;99.90;;;;;;5054494;28;20041;-63
2021/12/02 08:15:56;;;;;;;12.98;3.33;;;4.00;99.90;;;;;;5054710;28;20048;-63
2021/12/02 08:18:21;;;;;;;11.32;3.97;;;4.10;99.90;;;;;;5052691;28;20045;-63
2021/12/02 08:20:47;;;;;;;6.70;3.45;;;4.00;99.90;;;;;;5036375;28;20029;-63
2021/12/02 08:23:12;;;;;;;14.95;3.92;;;3.90;99.90;;;;;;5092808;28;20036;-64
2021/12/02 08:25:38;;;;;;;11.50;3.33;;;3.90;99.90;;;;;;5093778;28;20551;-63
2021/12/02 08:28:04;;;;;;;9.88;3.05;;;4.00;99.90;;;;;;5094980;28;20040;-63
2021/12/02 08:30:33;;;;;;;8.82;3.22;;;3.90;99.90;;;;;;5094378;28;20445;-64
2021/12/02 08:33:01;;;;;;;10.35;3.33;;;4.00;99.90;;;;;;5094681;28;20089;-65
2021/12/02 08:35:29;;;;;;;9.77;3.17;;;4.10;99.90;;;;;;5082443;28;20127;-63
2021/12/02 08:37:59;;;;;;;11.55;4.18;;;4.30;99.90;;;;;;5074278;28;20041;-63
2021/12/02 08:40:31;;;;;;;8.48;3.85;;;4.30;99.90;;;;;;5063396;28;20031;-64
2021/12/02 08:43:00;;;;;;;10.93;3.95;;;4.20;99.90;;;;;;5054867;28;20093;-63
2021/12/02 08:45:25;;;;;;;11.52;3.67;;;4.40;99.90;;;;;;5056426;28;20064;-63
2021/12/02 08:47:52;;;;;;;8.07;3.22;;;4.40;99.90;;;;;;5078743;28;20068;-63
2021/12/02 08:50:20;;;;;;;10.10;3.53;;;4.30;99.90;;;;;;5083695;28;20060;-63
2021/12/02 08:52:48;;;;;;;6.63;3.20;;;4.40;99.90;;;;;;5074710;28;20060;-63
2021/12/02 08:55:14;;;;;;;9.52;3.45;;;4.40;99.90;;;;;;5075777;28;20067;-64
2021/12/02 08:57:40;;;;;;;8.35;3.10;;;4.50;99.90;;;;;;5093742;28;20036;-63
2021/12/02 09:00:09;;;;;;;7.82;3.50;;;4.50;99.90;;;;;;5093133;28;20042;-64
2021/12/02 09:02:35;;;;;;;8.48;3.40;;;4.70;99.90;;;;;;5093888;28;20071;-63
2021/12/02 09:05:01;;;;;;;13.68;4.28;;;4.70;99.90;;;;;;5094039;28;20032;-64
2021/12/02 09:07:26;;;;;;;9.25;3.17;;;4.70;99.90;;;;;;5075315;28;20120;-64
2021/12/02 09:09:52;;;;;;;13.63;3.20;;;4.90;99.80;;;;;;5073229;28;20111;-65
2021/12/02 09:12:18;;;;;;;7.88;3.83;;;5.00;99.30;;;;;;5073449;28;20024;-63
2021/12/02 09:14:43;;;;;;;10.90;3.35;;;4.90;99.50;;;;;;5073421;28;20036;-64
2021/12/02 09:17:09;;;;;;;9.73;3.58;;;4.80;99.70;;;;;;5072444;28;20454;-64
2021/12/02 09:19:35;;;;;;;13.07;3.30;;;4.80;99.80;;;;;;5055226;28;20103;-64
2021/12/02 09:22:04;;;;;;;10.77;3.75;;;4.90;99.70;;;;;;5082204;28;20414;-63
2021/12/02 09:24:29;;;;;;;14.05;3.75;;;4.90;99.90;;;;;;5093271;28;20024;-63
2021/12/02 09:26:56;;;;;;;12.05;4.72;;;5.00;99.30;;;;;;5093332;28;20604;-63
2021/12/02 09:29:23;;;;;;;16.35;4.35;;;5.00;99.40;;;;;;5076901;28;20456;-65
2021/12/02 09:31:50;;;;;;;7.50;2.97;;;5.00;99.10;;;;;;5061656;28;20204;-64
2021/12/02 09:34:17;;;;;;;14.75;3.97;;;4.90;99.30;;;;;;5065177;28;20028;-64
2021/12/02 09:36:43;;;;;;;8.30;3.38;;;4.80;99.30;;;;;;5053243;28;20041;-64
2021/12/02 09:39:10;;;;;;;13.25;3.20;;;4.90;99.40;;;;;;5071439;28;20053;-63
2021/12/02 09:41:37;;;;;;;8.38;3.30;;;4.90;99.00;;;;;;5072434;28;20028;-63
2021/12/02 09:44:04;;;;;;;9.25;3.05;;;5.00;98.80;;;;;;5064075;28;20033;-65
2021/12/02 09:46:30;;;;;;;11.25;3.08;;;5.00;98.70;;;;;;5061445;28;20024;-64
2021/12/02 09:48:58;;;;;;;9.98;3.33;;;5.10;98.60;;;;;;5058986;28;20044;-64
2021/12/02 09:51:27;;;;;;;9.68;3.72;;;5.10;98.60;;;;;;5057606;28;20040;-63
2021/12/02 09:53:56;;;;;;;9.73;3.22;;;5.20;98.50;;;;;;5064195;28;20021;-63
2021/12/02 09:56:27;;;;;;;6.50;2.58;;;5.10;98.40;;;;;;5062911;28;20040;-64
2021/12/02 09:58:57;;;;;;;9.07;3.45;;;5.10;98.30;;;;;;5061042;28;20058;-64
2021/12/02 10:01:27;;;;;;;8.35;3.20;;;5.10;98.40;;;;;;5058739;28;20112;-64
2021/12/02 10:04:02;;;;;;;13.15;3.83;;;5.30;98.10;;;;;;5058333;28;20059;-62
2021/12/02 10:06:32;;;;;;;10.98;3.25;;;5.10;98.40;;;;;;5061224;28;20126;-64
2021/12/02 10:09:11;;;;;;;13.10;3.60;;;5.10;98.20;;;;;;5055595;28;20059;-64
2021/12/02 10:11:40;;;;;;;9.65;3.72;;;5.10;98.40;;;;;;5063647;28;20104;-63
2021/12/02 10:14:36;;;;;;;11.02;3.17;;;5.20;98.20;;;;;;5059435;28;20082;-64
2021/12/02 10:20:15;;;;;;;5.28;2.90;;;5.20;98.10;;;;;;5071025;28;20047;-63
2021/12/02 10:22:45;;;;;;;11.40;3.13;;;5.00;98.40;;;;;;5087656;28;20407;-64
2021/12/02 10:25:10;;;;;;;8.88;3.05;;;5.10;98.20;;;;;;5092433;28;20063;-65
2021/12/02 10:27:37;;;;;;;10.90;3.65;;;5.10;98.30;;;;;;5075010;28;20028;-64
2021/12/02 10:30:22;;;;;;;11.85;3.00;;;5.20;98.10;;;;;;5069816;28;20034;-62
2021/12/02 10:32:52;;;;;;;10.55;4.53;;;5.40;97.80;;;;;;5072740;28;20020;-63
2021/12/02 10:35:20;;;;;;;7.75;3.05;;;5.30;97.80;;;;;;5061326;28;20396;-63
2021/12/02 10:37:45;;;;;;;18.38;4.68;;;5.20;98.00;;;;;;5063044;28;20025;-63
2021/12/02 10:40:14;;;;;;;11.00;4.25;;;5.20;98.30;;;;;;5072213;28;20052;-63
2021/12/02 10:42:43;;;;;;;10.30;3.20;;;5.30;97.90;;;;;;5072413;28;20033;-64
2021/12/02 10:45:24;;;;;;;10.30;2.97;;;5.10;98.20;;;;;;5054425;28;20079;-64
2021/12/02 10:47:51;;;;;;;9.43;3.72;;;5.20;98.20;;;;;;5055436;28;20028;-63
2021/12/02 10:50:17;;;;;;;8.02;3.78;;;5.20;98.00;;;;;;5064485;28;20094;-62
2021/12/02 10:52:43;;;;;;;16.23;3.63;;;5.30;97.70;;;;;;5053396;28;20033;-63
2021/12/02 10:55:22;;;;;;;13.40;3.28;;;5.20;97.90;;;;;;5056896;28;20299;-63
2021/12/02 10:57:56;;;;;;;6.55;3.80;;;5.20;98.00;;;;;;5068040;28;20086;-63
2021/12/02 11:00:25;;;;;;;13.45;3.58;;;5.50;97.60;;;;;;5052434;28;20037;-63
2021/12/02 11:02:53;;;;;;;8.55;3.10;;;5.40;97.30;;;;;;5051843;28;20048;-65
2021/12/02 11:05:34;;;;;;;9.48;3.15;;;5.60;97.20;;;;;;5050666;28;20504;-63
2021/12/02 11:08:06;;;;;;;8.95;3.30;;;5.50;97.70;;;;;;5052051;28;20033;-63
2021/12/02 11:10:43;;;;;;;10.52;3.25;;;5.70;97.50;;;;;;5056721;28;20021;-64
2021/12/02 11:13:10;;;;;;;9.35;3.67;;;5.90;96.80;;;;;;5075653;28;20381;-65
2021/12/02 11:15:38;;;;;;;9.48;3.78;;;6.00;96.80;;;;;;5074199;28;20066;-64
2021/12/02 11:18:10;;;;;;;10.85;3.80;;;5.90;97.10;;;;;;5069029;28;20037;-64
2021/12/02 11:20:41;;;;;;;7.80;3.10;;;5.90;97.30;;;;;;5063745;28;20072;-63
2021/12/02 11:23:36;;;;;;;10.95;3.65;;;5.90;97.10;;;;;;5062688;28;20036;-63
2021/12/02 11:26:15;;;;;;;6.55;3.35;;;5.50;97.90;;;;;;5055418;28;20070;-64
2021/12/02 11:28:42;;;;;;;11.98;4.13;;;5.50;98.20;;;;;;5063941;28;20049;-63
2021/12/02 11:31:09;;;;;;;12.55;4.55;;;5.40;98.50;;;;;;5074815;28;20043;-65
2021/12/02 11:33:37;;;;;;;10.63;4.28;;;5.40;98.40;;;;;;5075540;28;20151;-64
2021/12/02 11:36:04;;;;;;;11.30;4.15;;;5.40;98.70;;;;;;5075232;28;20032;-64
2021/12/02 11:38:31;;;;;;;6.93;4.32;;;5.40;98.80;;;;;;5075211;28;20035;-64
2021/12/02 11:41:04;;;;;;;9.32;4.20;;;5.20;98.80;;;;;;5075134;28;20028;-63
2021/12/02 11:43:33;;;;;;;5.68;3.45;;;5.30;98.80;;;;;;5075405;28;20029;-63
2021/12/02 11:46:03;;;;;;;11.68;3.85;;;5.20;99.00;;;;;;5059410;28;20452;-63
2021/12/02 11:48:33;;;;;;;9.32;4.07;;;5.10;99.10;;;;;;5060304;28;20509;-64
2021/12/02 11:51:02;;;;;;;6.85;3.40;;;5.00;99.10;;;;;;5069476;28;20055;-65
2021/12/02 11:53:30;;;;;;;6.72;3.17;;;5.10;99.50;;;;;;5072311;28;20044;-64
2021/12/02 11:55:58;;;;;;;10.40;3.30;;;5.10;98.90;;;;;;5054639;28;20051;-64
2021/12/02 11:58:25;;;;;;;7.15;3.20;;;5.20;99.80;;;;;;5054833;28;20064;-63
2021/12/02 12:00:52;;;;;;;9.00;3.20;;;5.40;99.50;;;;;;5055274;28;20059;-64
2021/12/02 12:03:35;;;;;;;6.90;3.67;;;5.40;99.00;;;;;;5054827;28;20040;-64
2021/12/02 12:06:06;;;;;;;9.10;3.33;;;5.50;99.20;;;;;;5059992;28;20024;-63
2021/12/02 12:08:33;;;;;;;4.95;3.53;;;5.50;98.90;;;;;;5066190;28;20511;-63
2021/12/02 12:14:42;;;;;;;8.68;3.53;;;5.40;99.50;;;;;;5062909;28;20643;-63
2021/12/02 12:17:13;;;;;;;8.93;3.22;;;5.70;99.00;;;;;;5057207;28;20041;-66
2021/12/02 12:19:45;;;;;;;7.43;3.47;;;5.80;98.80;;;;;;5067784;28;20025;-65
2021/12/02 12:22:22;;;;;;;8.55;3.33;;;5.70;97.60;;;;;;5080201;28;20093;-65
2021/12/02 12:24:50;;;;;;;9.63;3.25;;;5.90;97.50;;;;;;5070978;28;20027;-64
2021/12/02 12:27:20;;;;;;;5.95;3.15;;;5.70;97.40;;;;;;5054468;28;20058;-66
2021/12/02 12:29:56;;;;;;;11.60;3.72;;;5.60;97.70;;;;;;5054310;28;20090;-65
2021/12/02 12:32:30;;;;;;;8.48;2.88;;;5.70;96.90;;;;;;5053522;28;20039;-67
2021/12/02 12:35:08;;;;;;;9.88;3.17;;;5.60;96.40;;;;;;5052789;28;20369;-65
2021/12/02 12:40:19;;;;;;;6.47;2.90;;;5.60;96.10;;;;;;5054459;28;20033;-65
2021/12/02 12:43:11;;;;;;;8.05;2.80;;;5.60;95.90;;;;;;5054529;28;20567;-65
2021/12/02 12:45:41;;;;;;;8.23;4.13;;;5.50;94.80;;;;;;5023519;28;20124;-65
2021/12/02 12:48:17;;;;;;;6.38;2.40;;;5.50;94.10;;;;;;5055676;28;20454;-64
2021/12/02 12:50:45;;;;;;;5.72;2.70;;;5.50;93.90;;;;;;5058124;28;20032;-65
2021/12/02 12:53:17;;;;;;;6.03;2.97;;;5.30;94.10;;;;;;5060239;28;20040;-64
2021/12/02 12:56:02;;;;;;;7.43;2.67;;;5.10;94.40;;;;;;5065359;28;20085;-65
2021/12/02 12:58:30;;;;;;;8.18;3.22;;;5.10;94.70;;;;;;5072339;28;20021;-65
2021/12/02 13:01:00;;;;;;;7.80;2.90;;;5.30;94.70;;;;;;5072473;28;20400;-64
2021/12/02 13:03:38;;;;;;;9.68;3.08;;;5.20;93.90;;;;;;5074165;28;20033;-64
2021/12/02 13:06:10;;;;;;;13.40;4.72;;;5.10;93.90;;;;;;5062728;28;20036;-65
2021/12/02 13:08:58;;;;;;;5.43;2.95;;;5.10;94.30;;;;;;5053463;28;20032;-65
2021/12/02 13:11:27;;;;;;;7.05;3.03;;;5.20;94.40;;;;;;5061638;28;20037;-64
2021/12/02 13:13:56;;;;;;;11.05;3.55;;;5.10;94.50;;;;;;5065275;28;20119;-65
2021/12/02 13:16:21;;;;;;;9.02;3.75;;;5.10;94.80;;;;;;5060793;28;20044;-64
2021/12/02 13:18:57;;;;;;;10.30;3.20;;;5.20;95.00;;;;;;5061986;28;20020;-65
2021/12/02 13:21:32;;;;;;;5.97;2.88;;;5.20;95.20;;;;;;5061092;28;20039;-64
2021/12/02 13:24:05;;;;;;;6.53;3.60;;;5.20;94.10;;;;;;5086762;28;20054;-65
2021/12/02 13:26:41;;;;;;;9.25;3.15;;;5.10;94.50;;;;;;5061388;28;20016;-66